Terminal Aerodrome Forecast
Issued by NWS

Home | Current Version | Previous Version | Text Only | Print | Product List | Glossary On
Versions: 1 2 3 4 5 6 7 8 9 10 11 12
992
FTUS45 KRIW 301743
TAFJAC
TAF
KJAC 301743Z 3018/3118 22012KT P6SM VCSH SCT012 OVC040
     FM302000 VRB05KT P6SM -RA SCT012 OVC024
     FM310100 36010KT P6SM VCSH SCT024 OVC040
     FM310600 36014G24KT P6SM SCT028 OVC040
     FM311200 35015G25KT P6SM BKN050
      AMD LTD TO CLD VIS AND WIND=

USA.gov is the U.S. government's official web portal to all federal, state and local government web resources and services.